Time;durP1;ratioP1;P1;durP2;ratioP2;P2;SDS_P1;SDS_P2;PMS_P1;PMS_P2;Temp;Humidity;BMP_temperature;BMP_pressure;BME280_temperature;BME280_humidity;BME280_pressure;Samples;Min_cycle;Max_cycle;Signal;HPM_P1;HPM_P2
2022/10/24 00:01:25;;;;;;;8.70;2.05;;;;;;;16.15;72.27;100338.56;5106697;28;20135;-64
2022/10/24 00:03:53;;;;;;;12.05;2.47;;;;;;;16.15;72.46;100335.03;5109107;28;20048;-65
2022/10/24 00:06:21;;;;;;;3.80;1.58;;;;;;;16.14;72.29;100334.22;5113391;28;20487;-65
2022/10/24 00:08:50;;;;;;;4.95;1.92;;;;;;;16.14;72.14;100325.28;5109936;28;20052;-65
2022/10/24 00:11:20;;;;;;;4.55;1.55;;;;;;;16.13;72.07;100332.59;5104926;28;20052;-65
2022/10/24 00:13:49;;;;;;;4.25;1.70;;;;;;;16.13;72.29;100332.59;5109474;28;20060;-65
2022/10/24 00:16:18;;;;;;;5.82;2.03;;;;;;;16.13;72.06;100329.06;5111590;28;20070;-65
2022/10/24 00:18:46;;;;;;;4.95;1.80;;;;;;;16.12;71.93;100333.69;5116228;28;20066;-65
2022/10/24 00:21:14;;;;;;;5.85;1.75;;;;;;;16.09;71.93;100328.00;5112923;28;20044;-65
2022/10/24 00:23:42;;;;;;;8.82;1.98;;;;;;;16.11;71.92;100340.19;5115129;28;20052;-65
2022/10/24 00:26:11;;;;;;;4.43;1.85;;;;;;;16.09;71.93;100328.00;5117165;28;20111;-65
2022/10/24 00:28:39;;;;;;;4.40;1.63;;;;;;;16.09;71.88;100330.69;5108255;28;20073;-65
2022/10/24 00:31:12;;;;;;;8.15;2.00;;;;;;;16.09;71.73;100326.09;5107286;28;20048;-65
2022/10/24 00:33:42;;;;;;;6.97;2.00;;;;;;;16.08;71.65;100329.88;5114374;28;20047;-65
2022/10/24 00:36:11;;;;;;;6.72;1.77;;;;;;;16.07;71.62;100327.44;5110555;28;20052;-65
2022/10/24 00:38:39;;;;;;;4.95;2.00;;;;;;;16.06;71.63;100328.53;5108832;28;20051;-65
2022/10/24 00:41:07;;;;;;;6.90;1.70;;;;;;;16.06;71.61;100332.06;5107877;28;20056;-65
2022/10/24 00:43:35;;;;;;;7.10;2.00;;;;;;;16.05;71.62;100326.91;5116160;28;20126;-64
2022/10/24 00:46:03;;;;;;;3.65;1.77;;;;;;;16.05;71.53;100330.44;5113426;28;20112;-66
2022/10/24 00:48:35;;;;;;;6.57;1.90;;;;;;;16.02;71.71;100317.41;5121789;28;20062;-65
2022/10/24 00:51:06;;;;;;;9.55;2.45;;;;;;;16.03;71.41;100326.38;5114523;28;20488;-65
2022/10/24 00:53:41;;;;;;;7.25;1.67;;;;;;;16.02;71.54;100320.13;5113223;28;20469;-65
2022/10/24 00:56:11;;;;;;;4.15;1.75;;;;;;;16.01;71.37;100318.50;5107960;28;20116;-65
2022/10/24 00:58:39;;;;;;;6.38;1.60;;;;;;;16.01;71.44;100314.97;5108271;28;20177;-65
2022/10/24 01:01:07;;;;;;;3.10;1.60;;;;;;;16.00;71.41;100321.47;5110957;28;20052;-65
2022/10/24 01:03:35;;;;;;;3.22;1.88;;;;;;;15.99;71.48;100317.16;5116195;28;20052;-65
2022/10/24 01:06:31;;;;;;;8.93;2.00;;;;;;;15.98;71.54;100310.91;5114985;28;20049;-65
2022/10/24 01:09:17;;;;;;;6.93;1.88;;;;;;;15.97;71.14;100316.59;5110986;28;20048;-65
2022/10/24 01:11:58;;;;;;;6.93;2.17;;;;;;;15.97;70.94;100314.72;5107767;28;20044;-65
2022/10/24 01:14:38;;;;;;;4.28;1.60;;;;;;;15.97;70.95;100314.72;5106815;28;20052;-65
2022/10/24 01:17:16;;;;;;;4.03;1.50;;;;;;;15.96;70.90;100315.78;5112563;28;20054;-65
2022/10/24 01:20:07;;;;;;;8.20;2.40;;;;;;;15.95;70.84;100311.44;5108789;28;20119;-65
2022/10/24 01:22:47;;;;;;;8.80;2.05;;;;;;;15.94;70.75;100309.81;5119554;28;20039;-66
2022/10/24 01:25:24;;;;;;;8.40;2.85;;;;;;;15.93;71.05;100309.00;5113136;28;20047;-65
2022/10/24 01:27:58;;;;;;;4.97;1.90;;;;;;;15.94;70.97;100309.81;5113544;28;20044;-65
2022/10/24 01:30:31;;;;;;;3.97;1.77;;;;;;;15.93;70.77;100311.72;5107629;28;20047;-66
2022/10/24 01:33:04;;;;;;;7.00;2.65;;;;;;;15.86;70.94;100294.09;5111377;28;20036;-65
2022/10/24 01:35:39;;;;;;;5.78;2.00;;;;;;;15.93;70.69;100303.59;5120890;28;20111;-65
2022/10/24 01:38:15;;;;;;;4.78;2.00;;;;;;;15.97;70.78;100290.31;5110607;28;20239;-65
2022/10/24 01:40:49;;;;;;;4.75;1.77;;;;;;;15.94;70.51;100297.09;5119235;28;20063;-65
2022/10/24 01:43:21;;;;;;;5.15;1.90;;;;;;;15.93;70.73;100294.66;5112606;28;20064;-65
2022/10/24 01:45:54;;;;;;;5.70;1.92;;;;;;;15.93;70.57;100300.88;5118836;28;20054;-65
2022/10/24 01:48:25;;;;;;;7.65;2.45;;;;;;;15.93;70.39;100283.81;5106343;28;20077;-65
2022/10/24 01:50:56;;;;;;;7.05;1.88;;;;;;;15.92;70.32;100282.19;5108254;28;20047;-65
2022/10/24 01:53:27;;;;;;;4.43;1.67;;;;;;;15.91;70.26;100283.28;5107321;28;20054;-66
2022/10/24 01:55:56;;;;;;;5.40;1.52;;;;;;;15.91;70.21;100280.56;5119338;28;20070;-65
2022/10/24 01:58:26;;;;;;;4.18;1.48;;;;;;;15.91;70.29;100277.84;5108396;28;20047;-65
2022/10/24 02:00:59;;;;;;;6.47;2.30;;;;;;;15.89;70.41;100282.72;5108754;28;20036;-65
2022/10/24 02:03:32;;;;;;;5.07;1.80;;;;;;;15.89;70.48;100269.19;5113481;28;20044;-65
2022/10/24 02:06:07;;;;;;;4.53;1.70;;;;;;;15.89;70.21;100277.31;5120074;28;20044;-65
2022/10/24 02:08:43;;;;;;;4.40;1.45;;;;;;;15.78;70.20;100252.09;5112351;28;20043;-65
2022/10/24 02:11:11;;;;;;;4.88;1.83;;;;;;;15.83;70.17;100260.22;5120214;28;20048;-66
2022/10/24 02:13:45;;;;;;;3.45;1.60;;;;;;;15.85;70.31;100266.19;5113869;28;20398;-65
2022/10/24 02:16:17;;;;;;;5.63;1.67;;;;;;;15.87;70.10;100272.16;5108091;28;20055;-65
2022/10/24 02:18:46;;;;;;;3.95;1.80;;;;;;;15.86;70.20;100258.88;5118905;28;20074;-65
2022/10/24 02:21:21;;;;;;;4.88;1.67;;;;;;;15.86;70.07;100267.81;5110325;28;20058;-65
2022/10/24 02:23:54;;;;;;;3.72;1.30;;;;;;;15.84;70.25;100267.28;5120403;28;20062;-65
2022/10/24 02:26:30;;;;;;;4.68;2.15;;;;;;;15.85;70.08;100265.38;5105118;28;20040;-65
2022/10/24 02:29:02;;;;;;;4.78;1.73;;;;;;;15.84;69.81;100267.28;5108544;28;20048;-65
2022/10/24 02:31:36;;;;;;;4.00;1.50;;;;;;;15.85;69.85;100277.03;5107143;28;20057;-65
2022/10/24 02:34:06;;;;;;;6.25;1.52;;;;;;;15.84;69.82;100271.88;5116013;28;20044;-66
2022/10/24 02:36:36;;;;;;;6.25;1.70;;;;;;;15.82;69.63;100274.03;5106334;28;20056;-65
2022/10/24 02:39:07;;;;;;;3.33;1.58;;;;;;;15.82;69.61;100280.28;5108605;28;20079;-65
2022/10/24 02:41:39;;;;;;;6.15;1.60;;;;;;;15.78;69.58;100272.97;5108261;28;20050;-66
2022/10/24 02:44:08;;;;;;;3.33;1.63;;;;;;;15.82;69.65;100284.88;5105555;28;20056;-66
2022/10/24 02:46:39;;;;;;;4.93;1.55;;;;;;;15.81;69.53;100283.25;5106635;28;20111;-66
2022/10/24 02:49:07;;;;;;;5.68;1.45;;;;;;;15.79;69.67;100278.13;5111687;28;20055;-65
2022/10/24 02:51:38;;;;;;;9.73;2.38;;;;;;;15.84;69.41;100277.31;5112662;28;20064;-66
2022/10/24 02:54:07;;;;;;;5.28;2.40;;;;;;;15.82;69.19;100284.88;5119296;28;20039;-65
2022/10/24 02:56:37;;;;;;;5.40;1.42;;;;;;;15.82;69.40;100287.59;5113759;28;20557;-65
2022/10/24 02:59:04;;;;;;;5.45;1.48;;;;;;;15.80;69.26;100281.63;5113336;28;20048;-65
2022/10/24 03:01:32;;;;;;;5.18;1.45;;;;;;;15.79;69.26;100286.25;5110366;28;20048;-66
2022/10/24 03:04:01;;;;;;;3.40;1.27;;;;;;;15.79;69.26;100280.00;5109904;28;20040;-66
2022/10/24 03:06:29;;;;;;;5.38;1.63;;;;;;;15.78;69.27;100287.31;5116592;28;20051;-65
2022/10/24 03:08:57;;;;;;;3.20;1.23;;;;;;;15.74;69.29;100286.22;5114394;28;20056;-65
2022/10/24 03:11:24;;;;;;;5.45;1.92;;;;;;;15.77;69.09;100287.59;5123394;28;20047;-66
2022/10/24 03:13:52;;;;;;;5.50;1.60;;;;;;;15.93;69.82;100279.19;5105420;28;20123;-66
2022/10/24 03:16:20;;;;;;;5.47;1.55;;;;;;;15.86;68.66;100280.56;5108688;28;20047;-65
2022/10/24 03:18:48;;;;;;;4.25;1.70;;;;;;;15.80;68.92;100284.34;5107763;28;20062;-66
2022/10/24 03:21:17;;;;;;;2.88;1.40;;;;;;;15.77;68.89;100279.47;5105783;28;20044;-65
2022/10/24 03:23:45;;;;;;;2.10;1.10;;;;;;;15.75;68.98;100287.88;5106770;28;20054;-66
2022/10/24 03:26:12;;;;;;;2.72;1.27;;;;;;;15.74;68.99;100275.41;5112295;28;20075;-65
2022/10/24 03:28:40;;;;;;;5.82;1.55;;;;;;;15.72;69.21;100276.75;4751360;28;10000460;-65
2022/10/24 03:31:08;;;;;;;4.32;1.52;;;;;;;15.73;69.32;100281.91;5106552;28;20042;-65
2022/10/24 03:33:36;;;;;;;4.57;1.50;;;;;;;15.71;68.98;100272.41;5114837;28;20053;-65
2022/10/24 03:36:05;;;;;;;5.35;1.70;;;;;;;15.73;69.15;100278.38;5117153;28;20043;-65
2022/10/24 03:38:34;;;;;;;5.38;1.77;;;;;;;15.72;69.16;100274.03;5115000;28;20493;-65
2022/10/24 03:41:02;;;;;;;5.05;1.45;;;;;;;15.70;69.25;100271.59;5113492;28;20055;-66
2022/10/24 03:43:29;;;;;;;8.15;1.90;;;;;;;15.78;68.98;100270.25;5110705;28;20054;-65
2022/10/24 03:45:58;;;;;;;4.85;1.35;;;;;;;15.75;69.00;100270.78;5110395;28;20059;-65
2022/10/24 03:48:26;;;;;;;5.13;1.45;;;;;;;15.68;68.92;100259.41;5104403;28;20072;-65
2022/10/24 03:50:53;;;;;;;5.07;1.60;;;;;;;15.77;69.06;100274.03;5119759;28;20043;-65
2022/10/24 03:53:21;;;;;;;10.02;1.50;;;;;;;15.74;69.07;100271.88;5114901;28;20431;-65
2022/10/24 03:55:50;;;;;;;7.45;2.10;;;;;;;15.72;69.04;100258.59;5109556;28;20069;-65
2022/10/24 03:58:18;;;;;;;3.88;1.45;;;;;;;15.71;69.01;100272.41;5116960;28;20054;-65
2022/10/24 04:00:46;;;;;;;4.18;1.30;;;;;;;15.70;69.11;100274.31;5110602;28;20043;-65
2022/10/24 04:03:13;;;;;;;3.67;1.38;;;;;;;15.69;69.22;100283.53;5111597;28;20044;-65
2022/10/24 04:05:41;;;;;;;5.10;1.52;;;;;;;15.69;69.06;100271.88;5117357;28;20054;-65
2022/10/24 04:08:09;;;;;;;7.03;1.42;;;;;;;15.73;69.06;100283.78;5114436;28;20047;-65
2022/10/24 04:10:37;;;;;;;7.78;1.60;;;;;;;15.70;68.96;100278.91;5120405;28;20131;-65
2022/10/24 04:13:06;;;;;;;6.55;1.50;;;;;;;15.70;68.92;100273.50;5107993;28;20052;-65
2022/10/24 04:15:34;;;;;;;2.53;1.33;;;;;;;15.69;68.77;100264.56;5109438;28;20060;-65
2022/10/24 04:18:01;;;;;;;4.28;1.48;;;;;;;15.68;68.86;100273.78;5124041;28;20050;-65
2022/10/24 04:20:29;;;;;;;3.30;1.15;;;;;;;15.67;68.93;100269.44;5112293;28;20062;-66
2022/10/24 04:22:57;;;;;;;4.50;1.35;;;;;;;15.67;68.74;100261.31;5110252;28;20115;-65
2022/10/24 04:25:29;;;;;;;6.05;2.35;;;;;;;15.67;68.80;100263.19;5119706;28;20108;-65
2022/10/24 04:27:56;;;;;;;4.80;1.55;;;;;;;15.67;68.81;100258.59;5115376;28;20075;-65
2022/10/24 04:30:27;;;;;;;6.82;1.90;;;;;;;15.67;68.70;100265.91;5106443;28;20054;-65
2022/10/24 04:32:55;;;;;;;5.13;1.42;;;;;;;15.66;68.63;100261.56;5112105;28;20063;-66
2022/10/24 04:35:24;;;;;;;4.47;1.83;;;;;;;15.66;68.77;100267.00;5119302;28;20047;-65
2022/10/24 04:37:52;;;;;;;6.70;2.03;;;;;;;15.65;68.87;100273.50;5117037;28;20063;-65
2022/10/24 04:40:20;;;;;;;3.30;1.30;;;;;;;15.63;68.78;100266.44;5109721;28;20044;-65
2022/10/24 04:42:48;;;;;;;3.70;1.73;;;;;;;15.63;68.74;100263.75;5112116;28;20036;-66
2022/10/24 04:45:16;;;;;;;5.63;1.23;;;;;;;15.58;68.76;100265.66;5115686;28;20127;-65
2022/10/24 04:47:45;;;;;;;4.93;1.55;;;;;;;15.59;68.60;100261.88;5115888;28;20051;-66
2022/10/24 04:50:13;;;;;;;7.20;1.65;;;;;;;15.61;68.71;100275.94;5111726;28;20044;-65
2022/10/24 04:52:41;;;;;;;6.13;1.42;;;;;;;15.59;68.54;100270.00;5112064;28;20056;-65
2022/10/24 04:55:09;;;;;;;5.85;1.80;;;;;;;15.61;68.70;100279.44;5113680;28;20135;-65
2022/10/24 04:57:36;;;;;;;4.32;1.30;;;;;;;15.61;68.68;100273.22;5108871;28;20043;-65
2022/10/24 05:00:06;;;;;;;6.90;1.42;;;;;;;15.60;68.81;100269.69;5110889;28;20067;-65
2022/10/24 05:02:33;;;;;;;4.03;1.33;;;;;;;15.60;68.55;100275.13;5112383;28;20052;-65
2022/10/24 05:05:03;;;;;;;3.38;1.10;;;;;;;15.59;68.67;100262.69;5108167;28;20055;-66
2022/10/24 05:07:30;;;;;;;6.16;1.54;;;;;;;15.65;68.41;100263.47;4756955;28;10001250;-65
2022/10/24 05:09:58;;;;;;;6.50;1.40;;;;;;;15.76;68.85;100265.09;4759742;28;10000568;-65
2022/10/24 05:12:26;;;;;;;5.63;1.30;;;;;;;16.34;68.12;100265.63;5117105;28;20043;-64
2022/10/24 05:14:53;;;;;;;6.13;1.77;;;;;;;16.16;67.53;100269.72;5107391;28;20058;-65
2022/10/24 05:17:21;;;;;;;6.32;1.45;;;;;;;16.08;68.34;100289.22;5106898;28;20056;-65
2022/10/24 05:19:49;;;;;;;4.97;1.45;;;;;;;16.30;67.76;100286.22;5104520;28;20058;-65
2022/10/24 05:22:18;;;;;;;4.43;1.40;;;;;;;16.01;67.75;100283.28;5108146;28;20054;-65
2022/10/24 05:24:46;;;;;;;5.78;1.63;;;;;;;16.05;67.91;100278.94;5106183;28;20084;-65
2022/10/24 05:27:13;;;;;;;3.63;1.40;;;;;;;16.03;68.58;100291.13;5105806;28;20111;-65
2022/10/24 05:29:41;;;;;;;4.45;1.40;;;;;;;15.98;68.43;100291.94;5106575;28;21104;-65
2022/10/24 05:32:09;;;;;;;6.60;1.48;;;;;;;16.26;69.01;100293.28;5113620;28;20044;-65
2022/10/24 05:34:37;;;;;;;4.05;1.20;;;;;;;16.06;68.41;100296.81;5109439;28;20040;-66
2022/10/24 05:37:04;;;;;;;9.57;1.60;;;;;;;16.53;67.95;100298.41;5112720;28;20048;-66
2022/10/24 05:39:34;;;;;;;6.93;1.20;;;;;;;16.32;68.32;100289.47;5104517;28;20067;-65
2022/10/24 05:42:01;;;;;;;8.15;1.63;;;;;;;16.17;68.13;100300.34;5113656;28;20047;-68
2022/10/24 05:44:29;;;;;;;6.82;1.50;;;;;;;16.14;69.61;100303.59;5111452;28;20065;-67
2022/10/24 05:46:57;;;;;;;6.05;1.60;;;;;;;16.16;68.85;100307.66;5119445;28;20063;-67
2022/10/24 05:49:24;;;;;;;8.18;1.52;;;;;;;16.50;67.10;100304.38;5108098;28;20051;-67
2022/10/24 05:51:52;;;;;;;6.60;1.60;;;;;;;16.13;67.47;100294.66;5113763;28;20062;-68
2022/10/24 05:54:20;;;;;;;6.25;1.17;;;;;;;16.03;68.32;100307.38;5105776;28;20064;-68
2022/10/24 05:56:49;;;;;;;5.10;1.45;;;;;;;15.90;68.54;100308.75;5103040;28;20423;-67
2022/10/24 05:59:17;;;;;;;4.28;1.42;;;;;;;15.85;68.27;100304.13;5102759;28;20058;-66
2022/10/24 06:01:44;;;;;;;5.85;1.30;;;;;;;15.78;68.29;100305.47;5106876;28;20140;-64
2022/10/24 06:04:12;;;;;;;9.63;2.20;;;;;;;15.75;68.20;100303.31;5104780;28;20063;-67
2022/10/24 06:06:41;;;;;;;8.93;1.60;;;;;;;15.74;68.35;100317.94;5112436;28;20071;-65
2022/10/24 06:09:09;;;;;;;9.80;2.17;;;;;;;15.71;68.51;100319.28;5105605;28;20052;-65
2022/10/24 06:11:37;;;;;;;5.05;1.80;;;;;;;15.70;68.51;100309.53;5111967;28;20043;-66
2022/10/24 06:14:06;;;;;;;4.55;1.60;;;;;;;15.76;68.85;100300.31;5107831;28;20185;-66
2022/10/24 06:16:36;;;;;;;7.20;1.50;;;;;;;15.72;68.33;100311.97;5087561;28;20044;-66
2022/10/24 06:19:04;;;;;;;7.45;1.75;;;;;;;15.73;68.40;100319.84;5089578;28;20462;-67
2022/10/24 06:21:31;;;;;;;9.07;1.90;;;;;;;15.78;68.23;100319.84;5081786;28;20044;-65
2022/10/24 06:23:59;;;;;;;6.22;1.73;;;;;;;15.71;68.19;100321.19;5084355;28;20049;-65
2022/10/24 06:26:27;;;;;;;10.82;1.65;;;;;;;15.74;68.92;100326.88;5085959;28;20052;-66
2022/10/24 06:28:55;;;;;;;11.68;1.98;;;;;;;15.70;68.53;100319.56;5085389;28;20055;-66
2022/10/24 06:31:25;;;;;;;5.70;1.63;;;;;;;15.67;68.30;100317.38;5090530;28;20060;-66
2022/10/24 06:33:54;;;;;;;7.25;1.70;;;;;;;15.65;68.37;100328.47;5095860;28;20147;-65
2022/10/24 06:36:22;;;;;;;11.63;1.75;;;;;;;15.69;68.65;100329.56;5082688;28;20079;-65
2022/10/24 06:38:57;;;;;;;10.80;1.88;;;;;;;15.74;68.30;100342.31;5081635;28;20067;-66
2022/10/24 06:41:24;;;;;;;11.63;2.38;;;;;;;15.69;68.48;100345.03;5084512;28;20049;-68
2022/10/24 06:43:55;;;;;;;7.30;1.98;;;;;;;15.66;68.41;100349.06;5086727;28;20052;-67
2022/10/24 06:46:24;;;;;;;8.15;2.25;;;;;;;15.65;68.58;100352.88;5085647;28;20055;-65
2022/10/24 06:48:54;;;;;;;9.35;2.83;;;;;;;15.63;68.56;100353.13;5088366;28;20316;-67
2022/10/24 06:51:23;;;;;;;7.18;1.80;;;;;;;15.67;68.59;100364.25;5092893;28;20047;-66
2022/10/24 06:53:51;;;;;;;4.65;2.03;;;;;;;15.66;68.46;100354.50;5094920;28;20589;-67
2022/10/24 06:56:19;;;;;;;8.55;1.80;;;;;;;15.62;68.65;100353.41;5086853;28;20043;-67
2022/10/24 06:58:47;;;;;;;6.38;1.60;;;;;;;15.63;68.62;100358.56;5091961;28;20122;-70
2022/10/24 07:01:17;;;;;;;9.63;1.75;;;;;;;15.63;68.82;100374.81;5086186;28;20048;-66
2022/10/24 07:03:46;;;;;;;7.68;2.00;;;;;;;15.54;68.92;100357.44;5085167;28;20048;-69
2022/10/24 07:06:17;;;;;;;10.02;1.90;;;;;;;15.62;68.88;100369.66;5085998;28;20044;-68
2022/10/24 07:08:45;;;;;;;8.45;1.85;;;;;;;15.61;69.03;100360.72;5086973;28;20056;-69
2022/10/24 07:11:13;;;;;;;8.73;1.80;;;;;;;15.61;68.98;100368.84;5090782;28;20048;-68
2022/10/24 07:13:41;;;;;;;16.02;1.98;;;;;;;15.60;69.05;100364.50;5082894;28;20140;-68
2022/10/24 07:16:09;;;;;;;7.35;1.80;;;;;;;15.59;69.12;100368.31;5083591;28;20064;-69
2022/10/24 07:18:37;;;;;;;10.95;2.17;;;;;;;15.59;69.17;100368.31;5086858;28;20075;-69
2022/10/24 07:21:09;;;;;;;6.10;1.77;;;;;;;15.59;69.11;100379.16;5084815;28;20139;-68
2022/10/24 07:23:36;;;;;;;8.13;2.03;;;;;;;15.65;69.13;100389.97;5083445;28;20148;-69
2022/10/24 07:26:06;;;;;;;5.78;1.55;;;;;;;15.62;68.79;100385.91;5096720;28;20044;-69
2022/10/24 07:28:35;;;;;;;6.30;2.08;;;;;;;15.61;68.91;100393.22;5087557;28;20054;-67
2022/10/24 07:31:04;;;;;;;4.40;1.42;;;;;;;15.60;69.05;100397.00;5094140;28;20055;-68
2022/10/24 07:33:33;;;;;;;8.30;1.80;;;;;;;15.61;69.15;100408.66;5096104;28;20049;-68
2022/10/24 07:36:00;;;;;;;9.55;2.05;;;;;;;15.66;69.09;100400.53;5088503;28;20052;-68
2022/10/24 07:38:29;;;;;;;6.03;1.75;;;;;;;15.63;68.91;100412.72;5088753;28;20072;-68
2022/10/24 07:40:57;;;;;;;10.52;2.20;;;;;;;15.62;69.00;100410.28;5095778;28;20052;-68
2022/10/24 07:43:25;;;;;;;11.20;2.97;;;;;;;15.86;69.38;100416.88;5089433;28;20079;-68
2022/10/24 07:45:53;;;;;;;7.57;1.90;;;;;;;15.69;68.51;100413.56;5089689;28;20052;-68
2022/10/24 07:48:21;;;;;;;6.20;1.90;;;;;;;15.72;68.46;100426.56;5088028;28;20044;-68
2022/10/24 07:50:48;;;;;;;6.30;1.70;;;;;;;15.67;68.72;100434.69;5094677;28;20059;-68
2022/10/24 07:53:16;;;;;;;9.40;2.13;;;;;;;15.64;68.61;100432.50;5090547;28;20052;-68
2022/10/24 07:55:45;;;;;;;10.13;1.80;;;;;;;15.63;68.69;100458.78;5098636;28;20045;-68
2022/10/24 07:58:13;;;;;;;10.98;1.92;;;;;;;15.68;68.67;100449.03;5087686;28;20120;-68
2022/10/24 08:00:41;;;;;;;9.30;1.75;;;;;;;15.56;68.81;100439.25;5088706;28;20065;-68
2022/10/24 08:03:12;;;;;;;9.80;2.38;;;;;;;15.63;68.81;100450.66;5087820;28;20049;-68
2022/10/24 08:05:40;;;;;;;10.20;2.15;;;;;;;15.63;68.94;100457.97;5087885;28;20068;-68
2022/10/24 08:08:08;;;;;;;7.13;1.63;;;;;;;15.63;69.01;100456.06;5087770;28;20150;-68
2022/10/24 08:10:57;;;;;;;8.05;2.05;;;;;;;15.63;69.14;100457.97;5087418;28;20055;-68
2022/10/24 08:13:25;;;;;;;10.40;3.50;;;;;;;15.63;69.00;100456.06;5091214;28;20046;-68
2022/10/24 08:15:53;;;;;;;7.03;2.00;;;;;;;15.69;68.98;100465.03;5106863;28;20058;-68
2022/10/24 08:18:20;;;;;;;10.63;2.28;;;;;;;15.73;68.84;100471.56;5097467;28;20144;-68
2022/10/24 08:20:56;;;;;;;7.00;2.70;;;;;;;15.76;68.58;100473.72;5087515;28;20112;-68
2022/10/24 08:23:24;;;;;;;7.50;1.92;;;;;;;15.78;68.85;100471.56;5087483;28;20107;-68
2022/10/24 08:25:52;;;;;;;16.92;2.15;;;;;;;15.80;68.70;100482.16;5087266;28;20055;-68
2022/10/24 08:28:22;;;;;;;6.80;1.88;;;;;;;15.82;68.62;100480.00;5087125;28;20056;-68
2022/10/24 08:30:56;;;;;;;12.25;2.55;;;;;;;15.83;68.40;100477.00;5086433;28;20064;-67
2022/10/24 08:33:25;;;;;;;8.10;1.92;;;;;;;15.76;68.60;100476.44;5100387;28;20058;-68
2022/10/24 08:35:54;;;;;;;12.52;2.17;;;;;;;15.82;68.36;100488.94;5107417;28;20047;-67
2022/10/24 08:38:22;;;;;;;11.48;2.63;;;;;;;15.85;68.50;100476.75;5106486;28;20052;-68
2022/10/24 08:40:50;;;;;;;15.27;2.28;;;;;;;15.87;68.24;100482.72;5100965;28;20048;-68
2022/10/24 08:43:19;;;;;;;9.55;1.70;;;;;;;15.92;68.05;100496.28;5085984;28;20520;-68
2022/10/24 08:45:59;;;;;;;18.45;2.10;;;;;;;15.95;67.96;100499.28;5090360;28;20498;-68
2022/10/24 08:48:32;;;;;;;11.85;2.78;;;;;;;15.99;67.81;100506.88;5097756;28;20048;-68
2022/10/24 08:51:08;;;;;;;7.97;1.77;;;;;;;15.98;67.77;100499.84;5087010;28;20386;-68
2022/10/24 08:53:36;;;;;;;12.02;2.20;;;;;;;15.98;67.88;100514.19;5092233;28;20055;-68
2022/10/24 08:56:05;;;;;;;11.50;2.63;;;;;;;15.97;67.82;100514.47;5094844;28;20057;-68
2022/10/24 08:58:37;;;;;;;11.95;2.88;;;;;;;15.98;67.71;100516.09;5086553;28;20048;-69
2022/10/24 09:01:14;;;;;;;12.80;2.08;;;;;;;15.97;67.55;100517.19;5086133;28;20429;-69
2022/10/24 09:03:44;;;;;;;12.38;2.40;;;;;;;16.00;67.55;100512.03;5086908;28;20131;-68
2022/10/24 09:06:30;;;;;;;12.88;2.30;;;;;;;15.94;67.52;100513.09;5086669;28;20052;-68
2022/10/24 09:08:59;;;;;;;11.35;2.20;;;;;;;15.91;67.55;100506.31;5090854;28;20052;-68
2022/10/24 09:11:39;;;;;;;11.90;2.00;;;;;;;15.89;67.57;100510.38;5086545;28;20048;-68
2022/10/24 09:14:12;;;;;;;15.50;2.45;;;;;;;15.89;67.54;100513.06;5091001;28;20056;-68
2022/10/24 09:16:43;;;;;;;19.15;3.17;;;;;;;15.85;67.73;100515.50;5086043;28;20055;-68
2022/10/24 09:19:14;;;;;;;6.65;1.77;;;;;;;15.85;67.93;100511.97;5086273;28;20044;-68
2022/10/24 09:21:43;;;;;;;11.93;2.92;;;;;;;15.83;67.94;100516.84;5086705;28;20048;-68
2022/10/24 09:24:24;;;;;;;9.18;2.85;;;;;;;15.84;67.98;100521.19;5086086;28;20048;-68
2022/10/24 09:26:52;;;;;;;13.00;2.80;;;;;;;15.82;67.96;100529.56;5086639;28;20040;-68
2022/10/24 09:29:20;;;;;;;7.60;1.70;;;;;;;15.79;68.18;100526.59;5085268;28;20048;-68
2022/10/24 09:31:49;;;;;;;11.25;2.22;;;;;;;15.80;68.35;100522.78;5086489;28;20139;-68
2022/10/24 09:34:17;;;;;;;15.48;2.78;;;;;;;15.76;68.39;100525.22;5086064;28;20122;-68
2022/10/24 09:36:45;;;;;;;7.50;2.28;;;;;;;15.77;68.28;100532.25;5086178;28;20067;-69
2022/10/24 09:39:28;;;;;;;10.32;2.58;;;;;;;15.80;68.62;100522.78;5086289;28;20048;-68
2022/10/24 09:41:57;;;;;;;12.65;3.10;;;;;;;15.81;68.26;100527.94;5086030;28;20508;-68
2022/10/24 09:44:34;;;;;;;9.25;2.28;;;;;;;15.82;68.30;100534.19;5084538;28;20131;-69
2022/10/24 09:47:08;;;;;;;7.85;2.50;;;;;;;15.79;68.51;100532.81;5087479;28;20049;-68
2022/10/24 09:49:40;;;;;;;12.10;2.42;;;;;;;15.82;68.43;100539.59;5089152;28;20048;-68
2022/10/24 09:52:18;;;;;;;7.15;1.70;;;;;;;15.82;68.47;100535.00;5086180;28;20044;-68
2022/10/24 09:54:47;;;;;;;12.48;2.88;;;;;;;15.82;68.51;100542.31;5100538;28;20051;-68
2022/10/24 09:57:17;;;;;;;12.73;2.75;;;;;;;15.83;68.75;100565.63;5085963;28;20044;-68
2022/10/24 09:59:46;;;;;;;10.65;2.17;;;;;;;15.84;68.50;100546.38;5084584;28;20062;-68
2022/10/24 10:02:27;;;;;;;23.48;2.88;;;;;;;15.83;68.40;100543.94;5085794;28;20056;-68
2022/10/24 10:05:16;;;;;;;15.18;3.22;;;;;;;15.86;68.46;100557.78;5085350;28;20048;-68
2022/10/24 10:07:47;;;;;;;11.50;2.78;;;;;;;15.87;68.46;100555.88;5085687;28;20049;-68
2022/10/24 10:10:31;;;;;;;8.38;2.35;;;;;;;15.86;68.57;100555.06;5085509;28;20049;-68
2022/10/24 10:13:04;;;;;;;7.28;1.70;;;;;;;15.86;68.42;100556.97;5086903;28;20047;-68
2022/10/24 10:15:34;;;;;;;9.55;2.78;;;;;;;15.87;68.38;100564.00;5091878;28;20055;-68
2022/10/24 10:18:06;;;;;;;9.23;2.72;;;;;;;15.85;68.44;100582.44;5085022;28;20055;-68
2022/10/24 10:20:39;;;;;;;18.02;2.30;;;;;;;15.85;68.67;100567.00;5097363;28;20516;-68
2022/10/24 10:23:24;;;;;;;13.48;2.65;;;;;;;15.86;68.72;100587.59;5090622;28;20393;-68
2022/10/24 10:26:06;;;;;;;16.35;2.80;;;;;;;15.88;68.30;100595.47;5087354;28;20052;-68
2022/10/24 10:28:35;;;;;;;11.10;2.70;;;;;;;15.86;67.87;100598.44;5085157;28;20048;-68
2022/10/24 10:31:04;;;;;;;12.05;2.55;;;;;;;15.87;67.66;100594.66;5084277;28;20048;-68
2022/10/24 10:33:41;;;;;;;10.80;2.78;;;;;;;15.87;67.55;100599.25;5085268;28;20071;-68
2022/10/24 10:36:16;;;;;;;13.90;2.60;;;;;;;15.87;67.79;100602.78;5085228;28;20055;-68
2022/10/24 10:38:49;;;;;;;9.75;2.88;;;;;;;15.87;67.91;100604.66;5085266;28;20062;-68
2022/10/24 10:41:32;;;;;;;12.80;3.40;;;;;;;15.87;67.99;100608.19;5084979;28;20053;-68
2022/10/24 10:44:15;;;;;;;10.65;2.60;;;;;;;15.87;68.01;100612.78;5084468;28;20222;-68
2022/10/24 10:46:57;;;;;;;9.55;2.30;;;;;;;15.87;68.20;100619.03;5088288;28;20098;-68
2022/10/24 10:49:30;;;;;;;10.18;2.45;;;;;;;15.86;68.25;100606.56;5084757;28;20070;-68
2022/10/24 10:52:02;;;;;;;9.10;2.17;;;;;;;15.88;68.51;100617.13;5085113;28;20504;-68
2022/10/24 10:54:44;;;;;;;11.35;1.98;;;;;;;15.88;68.58;100612.53;5096073;28;20052;-68
2022/10/24 10:57:15;;;;;;;10.38;2.33;;;;;;;15.96;68.51;100605.81;5097096;28;20136;-68
2022/10/24 10:59:52;;;;;;;11.82;2.50;;;;;;;15.93;68.28;100622.59;5083296;28;20072;-68
2022/10/24 11:02:40;;;;;;;7.93;1.98;;;;;;;15.94;68.33;100624.22;5084922;28;20045;-69
2022/10/24 11:05:33;;;;;;;8.48;2.45;;;;;;;15.94;68.36;100626.94;5084323;28;20106;-68
2022/10/24 11:08:13;;;;;;;13.25;2.92;;;;;;;15.94;67.86;100621.50;5084944;28;20052;-68
2022/10/24 11:10:51;;;;;;;14.38;2.88;;;;;;;15.93;67.11;100617.16;5092209;28;20062;-68
2022/10/24 11:13:23;;;;;;;8.38;2.10;;;;;;;15.92;66.83;100616.34;5100200;28;20040;-68
2022/10/24 11:15:58;;;;;;;8.18;2.17;;;;;;;15.92;66.60;100629.91;5104001;28;20051;-68
2022/10/24 11:18:31;;;;;;;8.18;1.88;;;;;;;16.00;66.78;100633.19;5102246;28;20059;-69
2022/10/24 11:21:07;;;;;;;13.15;2.30;;;;;;;15.96;66.75;100630.19;5084415;28;20076;-68
2022/10/24 11:23:39;;;;;;;12.10;1.77;;;;;;;15.95;66.62;100637.50;5084581;28;20218;-68
2022/10/24 11:26:11;;;;;;;10.48;3.80;;;;;;;15.94;66.58;100635.06;5084251;28;20072;-68
2022/10/24 11:28:46;;;;;;;11.93;2.63;;;;;;;15.93;67.09;100639.66;5084129;28;20160;-68
2022/10/24 11:31:21;;;;;;;9.13;2.25;;;;;;;15.92;67.24;100640.75;5083334;28;20045;-68
2022/10/24 11:33:56;;;;;;;13.50;2.35;;;;;;;15.92;67.35;100646.16;5084110;28;20059;-68
2022/10/24 11:36:32;;;;;;;10.35;2.17;;;;;;;15.90;67.20;100636.66;5086731;28;20044;-68
2022/10/24 11:39:06;;;;;;;10.45;1.90;;;;;;;15.94;67.16;100644.00;5086118;28;20048;-68